Pagrindinis puslapis
METAR-TAF:

METAR-TAF

Oro uostai :

Salala, Omanas

platuma: 17-02N, ilguma: 054-05E, Aukštis: 20 m

Dabartinis oras

Ataskaita buvo paskelbta 1 valandą ir 14 minutes, ne 19:50 UTC
Vėjas 5 kt iš Šiaurės/Šiaurės Vakarų
Temperatūra 20°C
Drėgmė 43%
Slėgis 1017 hPa
Matomumas 10 km arba daugiau
nėra debesų žemiau 1500 m ir nėra kamuolinių lietaus debesų

METAR: OOSA 251950Z 34005KT CAVOK 20/07 Q1017 NOSIG

Laikas: 01:04 (21:04 UTC)

Prognozė

Ataskaita buvo paskelbta 3 valandos ir 24 minutes, ne 17:40 UTC
Prognozė galioja nuo 25 metu 18 UTC su 27 metu 00 UTC
Vėjas 3 kt nuo kintamojo kryptimis
Matomumas 10 km arba daugiau
nėra debesų žemiau 1500 m ir nėra kamuolinių lietaus debesų
Tapsmas
nuo 26 metu 00 UTC su 26 metu 02 UTC
Vėjas 13 kt iš Šiaurės
Tikimybė 30% :
Laikinai
nuo 26 metu 08 UTC su 26 metu 12 UTC
Vėjas 10 kt iš Pietų/Pietryčių
Tapsmas
nuo 26 metu 16 UTC su 26 metu 18 UTC
Vėjas 3 kt nuo kintamojo kryptimis

TAF: OOSA 251740Z 2518/2700 VRB03KT CAVOK BECMG 2600/2602 01013KT PROB30 TEMPO 2608/2612 16010KT BECMG 2616/2618 VRB03KT

Orai ataskaitas ir orų prognozės (METAR, TAF).

turimą stotys yra geltonos ir raudonos taškus žemėlapyje.

Perkelti pele per norėdami pamatyti stoties vardą.

Tada spustelėkite, norėdami matyti oro stebėjimo ir prognozės.

Norėdami pakeisti žemėlapį: spustelėkite ant žalios mygtukų su juodo kryžiaus žemyn,; žalią mygtuką su brūkšneliu, jei norite nutolinti; arba žalių rodyklių gretimoms žemėlapius.


METAR-TAF: